sensor_id;sensor_type;location;lat;lon;timestamp;pressure;altitude;pressure_sealevel;temperature;humidity
76229;BME280;65021;53.174;18.160;2023-06-14T00:00:47;101409.19;;;13.36;72.34
76229;BME280;65021;53.174;18.160;2023-06-14T00:03:35;101405.67;;;13.36;73.20
76229;BME280;65021;53.174;18.160;2023-06-14T00:06:01;101403.87;;;13.36;72.92
76229;BME280;65021;53.174;18.160;2023-06-14T00:08:28;101402.42;;;13.36;73.07
76229;BME280;65021;53.174;18.160;2023-06-14T00:10:54;101398.34;;;13.36;73.44
76229;BME280;65021;53.174;18.160;2023-06-14T00:13:21;101398.21;;;13.35;73.09
76229;BME280;65021;53.174;18.160;2023-06-14T00:15:48;101398.77;;;13.35;72.87
76229;BME280;65021;53.174;18.160;2023-06-14T00:18:14;101393.36;;;13.35;72.81
76229;BME280;65021;53.174;18.160;2023-06-14T00:20:41;101392.62;;;13.38;73.25
76229;BME280;65021;53.174;18.160;2023-06-14T00:23:09;101398.83;;;13.40;72.93
76229;BME280;65021;53.174;18.160;2023-06-14T00:25:35;101395.66;;;13.42;72.39
76229;BME280;65021;53.174;18.160;2023-06-14T00:28:02;101398.19;;;13.42;72.24
76229;BME280;65021;53.174;18.160;2023-06-14T00:30:29;101399.94;;;13.43;72.09
76229;BME280;65021;53.174;18.160;2023-06-14T00:32:57;101401.05;;;13.43;72.11
76229;BME280;65021;53.174;18.160;2023-06-14T00:35:24;101397.19;;;13.43;72.54
76229;BME280;65021;53.174;18.160;2023-06-14T00:37:51;101394.98;;;13.41;72.36
76229;BME280;65021;53.174;18.160;2023-06-14T00:40:18;101389.89;;;13.41;73.19
76229;BME280;65021;53.174;18.160;2023-06-14T00:42:44;101389.80;;;13.39;72.89
76229;BME280;65021;53.174;18.160;2023-06-14T00:45:11;101386.33;;;13.38;72.76
76229;BME280;65021;53.174;18.160;2023-06-14T00:47:38;101377.76;;;13.37;73.42
76229;BME280;65021;53.174;18.160;2023-06-14T00:50:08;101375.52;;;13.34;73.52
76229;BME280;65021;53.174;18.160;2023-06-14T00:52:35;101372.27;;;13.33;73.78
76229;BME280;65021;53.174;18.160;2023-06-14T00:55:02;101363.70;;;13.31;74.58
76229;BME280;65021;53.174;18.160;2023-06-14T00:57:29;101361.80;;;13.29;75.03
76229;BME280;65021;53.174;18.160;2023-06-14T00:59:56;101356.41;;;13.28;75.09
76229;BME280;65021;53.174;18.160;2023-06-14T01:02:23;101353.76;;;13.28;75.06
76229;BME280;65021;53.174;18.160;2023-06-14T01:04:51;101350.22;;;13.30;74.97
76229;BME280;65021;53.174;18.160;2023-06-14T01:07:38;101356.86;;;13.33;75.07
76229;BME280;65021;53.174;18.160;2023-06-14T01:15:23;101356.59;;;13.35;75.04
76229;BME280;65021;53.174;18.160;2023-06-14T01:17:50;101351.96;;;13.35;75.00
76229;BME280;65021;53.174;18.160;2023-06-14T01:20:36;101343.52;;;13.34;74.94
76229;BME280;65021;53.174;18.160;2023-06-14T01:23:03;101341.23;;;13.34;74.90
76229;BME280;65021;53.174;18.160;2023-06-14T01:25:30;101336.32;;;13.33;75.17
76229;BME280;65021;53.174;18.160;2023-06-14T01:28:02;101341.31;;;13.33;75.35
76229;BME280;65021;53.174;18.160;2023-06-14T01:30:30;101340.67;;;13.31;74.97
76229;BME280;65021;53.174;18.160;2023-06-14T01:33:01;101342.81;;;13.29;75.28
76229;BME280;65021;53.174;18.160;2023-06-14T01:35:28;101339.21;;;13.27;75.10
76229;BME280;65021;53.174;18.160;2023-06-14T01:37:55;101338.64;;;13.26;75.37
76229;BME280;65021;53.174;18.160;2023-06-14T01:40:22;101342.16;;;13.26;75.08
76229;BME280;65021;53.174;18.160;2023-06-14T01:42:50;101337.64;;;13.27;74.96
76229;BME280;65021;53.174;18.160;2023-06-14T01:45:18;101336.16;;;13.25;75.29
76229;BME280;65021;53.174;18.160;2023-06-14T01:47:46;101336.48;;;13.25;74.96
76229;BME280;65021;53.174;18.160;2023-06-14T01:50:13;101331.70;;;13.25;74.87
76229;BME280;65021;53.174;18.160;2023-06-14T01:52:40;101330.87;;;13.26;75.35
76229;BME280;65021;53.174;18.160;2023-06-14T01:55:07;101327.44;;;13.25;74.88
76229;BME280;65021;53.174;18.160;2023-06-14T01:57:34;101324.77;;;13.26;74.46
76229;BME280;65021;53.174;18.160;2023-06-14T02:00:01;101324.35;;;13.27;74.13
76229;BME280;65021;53.174;18.160;2023-06-14T02:02:28;101324.77;;;13.28;73.87
76229;BME280;65021;53.174;18.160;2023-06-14T02:04:54;101327.76;;;13.30;73.72
76229;BME280;65021;53.174;18.160;2023-06-14T02:07:23;101330.17;;;13.33;73.51
76229;BME280;65021;53.174;18.160;2023-06-14T02:09:50;101330.45;;;13.36;73.37
76229;BME280;65021;53.174;18.160;2023-06-14T02:12:17;101324.85;;;13.39;73.54
76229;BME280;65021;53.174;18.160;2023-06-14T02:14:43;101322.80;;;13.36;73.76
76229;BME280;65021;53.174;18.160;2023-06-14T02:17:11;101323.98;;;13.32;73.67
76229;BME280;65021;53.174;18.160;2023-06-14T02:19:38;101331.86;;;13.31;73.41
76229;BME280;65021;53.174;18.160;2023-06-14T02:22:05;101334.83;;;13.32;73.57
76229;BME280;65021;53.174;18.160;2023-06-14T02:24:31;101336.75;;;13.30;73.51
76229;BME280;65021;53.174;18.160;2023-06-14T02:26:58;101338.94;;;13.24;73.70
76229;BME280;65021;53.174;18.160;2023-06-14T02:29:24;101330.63;;;13.22;73.75
76229;BME280;65021;53.174;18.160;2023-06-14T02:31:51;101329.84;;;13.20;73.61
76229;BME280;65021;53.174;18.160;2023-06-14T02:34:18;101330.27;;;13.18;73.81
76229;BME280;65021;53.174;18.160;2023-06-14T02:36:47;101329.88;;;13.15;73.89
76229;BME280;65021;53.174;18.160;2023-06-14T02:39:14;101324.45;;;13.16;73.85
76229;BME280;65021;53.174;18.160;2023-06-14T02:41:40;101322.79;;;13.19;73.39
76229;BME280;65021;53.174;18.160;2023-06-14T02:44:09;101323.11;;;13.23;73.28
76229;BME280;65021;53.174;18.160;2023-06-14T02:46:38;101318.42;;;13.27;73.50
76229;BME280;65021;53.174;18.160;2023-06-14T02:49:04;101317.15;;;13.30;73.20
76229;BME280;65021;53.174;18.160;2023-06-14T02:51:31;101313.17;;;13.33;73.29
76229;BME280;65021;53.174;18.160;2023-06-14T02:53:58;101309.48;;;13.32;73.59
76229;BME280;65021;53.174;18.160;2023-06-14T02:56:24;101307.55;;;13.31;73.90
76229;BME280;65021;53.174;18.160;2023-06-14T02:58:52;101304.55;;;13.32;73.50
76229;BME280;65021;53.174;18.160;2023-06-14T03:01:19;101299.34;;;13.33;73.42
76229;BME280;65021;53.174;18.160;2023-06-14T03:03:47;101297.14;;;13.35;73.26
76229;BME280;65021;53.174;18.160;2023-06-14T03:06:13;101295.33;;;13.37;73.26
76229;BME280;65021;53.174;18.160;2023-06-14T03:08:42;101293.69;;;13.39;73.34
76229;BME280;65021;53.174;18.160;2023-06-14T03:11:10;101297.27;;;13.41;73.30
76229;BME280;65021;53.174;18.160;2023-06-14T03:13:36;101297.65;;;13.42;73.27
76229;BME280;65021;53.174;18.160;2023-06-14T03:16:04;101296.48;;;13.42;73.50
76229;BME280;65021;53.174;18.160;2023-06-14T03:18:31;101300.30;;;13.43;73.32
76229;BME280;65021;53.174;18.160;2023-06-14T03:21:02;101300.67;;;13.45;73.02
76229;BME280;65021;53.174;18.160;2023-06-14T03:23:29;101300.16;;;13.48;72.87
76229;BME280;65021;53.174;18.160;2023-06-14T03:25:56;101302.35;;;13.48;73.18
76229;BME280;65021;53.174;18.160;2023-06-14T03:28:22;101304.77;;;13.50;73.41
76229;BME280;65021;53.174;18.160;2023-06-14T03:30:49;101308.85;;;13.50;73.17
76229;BME280;65021;53.174;18.160;2023-06-14T03:33:15;101308.20;;;13.50;73.36
76229;BME280;65021;53.174;18.160;2023-06-14T03:35:43;101306.66;;;13.49;73.95
76229;BME280;65021;53.174;18.160;2023-06-14T03:38:10;101304.95;;;13.47;73.67
76229;BME280;65021;53.174;18.160;2023-06-14T03:40:36;101303.21;;;13.50;73.27
76229;BME280;65021;53.174;18.160;2023-06-14T03:43:03;101309.62;;;13.55;73.50
76229;BME280;65021;53.174;18.160;2023-06-14T03:45:30;101312.02;;;13.59;73.31
76229;BME280;65021;53.174;18.160;2023-06-14T03:47:56;101308.61;;;13.61;73.12
76229;BME280;65021;53.174;18.160;2023-06-14T03:50:23;101307.64;;;13.64;73.10
76229;BME280;65021;53.174;18.160;2023-06-14T03:52:50;101305.55;;;13.69;73.18
76229;BME280;65021;53.174;18.160;2023-06-14T03:55:17;101309.19;;;13.75;73.02
76229;BME280;65021;53.174;18.160;2023-06-14T03:57:43;101315.33;;;13.82;72.88
76229;BME280;65021;53.174;18.160;2023-06-14T04:00:10;101311.85;;;13.88;72.85
76229;BME280;65021;53.174;18.160;2023-06-14T04:02:38;101309.52;;;13.92;73.21
76229;BME280;65021;53.174;18.160;2023-06-14T04:05:05;101315.13;;;13.97;72.80
76229;BME280;65021;53.174;18.160;2023-06-14T04:07:35;101319.07;;;14.02;72.59
76229;BME280;65021;53.174;18.160;2023-06-14T04:10:07;101316.81;;;14.08;72.81
76229;BME280;65021;53.174;18.160;2023-06-14T04:12:34;101323.58;;;14.12;72.93
76229;BME280;65021;53.174;18.160;2023-06-14T04:15:01;101327.06;;;14.16;72.85
76229;BME280;65021;53.174;18.160;2023-06-14T04:17:28;101329.98;;;14.21;73.15
76229;BME280;65021;53.174;18.160;2023-06-14T04:19:54;101325.69;;;14.25;72.95
76229;BME280;65021;53.174;18.160;2023-06-14T04:22:21;101332.29;;;14.31;73.31
76229;BME280;65021;53.174;18.160;2023-06-14T04:24:48;101333.27;;;14.36;73.23
76229;BME280;65021;53.174;18.160;2023-06-14T04:27:15;101334.33;;;14.44;73.17
76229;BME280;65021;53.174;18.160;2023-06-14T04:29:47;101336.85;;;14.56;73.00
76229;BME280;65021;53.174;18.160;2023-06-14T04:32:19;101339.95;;;14.62;72.72
76229;BME280;65021;53.174;18.160;2023-06-14T04:34:46;101337.64;;;14.69;72.51
76229;BME280;65021;53.174;18.160;2023-06-14T04:37:13;101336.55;;;14.79;72.58
76229;BME280;65021;53.174;18.160;2023-06-14T04:39:40;101332.06;;;14.87;72.35
76229;BME280;65021;53.174;18.160;2023-06-14T04:42:08;101329.51;;;14.94;72.10
76229;BME280;65021;53.174;18.160;2023-06-14T04:44:38;101329.90;;;15.03;71.93
76229;BME280;65021;53.174;18.160;2023-06-14T04:47:06;101326.35;;;15.16;71.74
76229;BME280;65021;53.174;18.160;2023-06-14T04:49:33;101321.66;;;15.27;71.50
76229;BME280;65021;53.174;18.160;2023-06-14T04:52:01;101314.63;;;15.40;71.43
76229;BME280;65021;53.174;18.160;2023-06-14T04:54:27;101309.02;;;15.53;71.47
76229;BME280;65021;53.174;18.160;2023-06-14T04:56:54;101313.14;;;15.62;71.60
76229;BME280;65021;53.174;18.160;2023-06-14T04:59:21;101316.94;;;15.67;71.58
76229;BME280;65021;53.174;18.160;2023-06-14T05:01:50;101316.84;;;15.68;71.44
76229;BME280;65021;53.174;18.160;2023-06-14T05:04:17;101309.29;;;15.69;71.38
76229;BME280;65021;53.174;18.160;2023-06-14T05:06:44;101309.31;;;15.74;71.21
76229;BME280;65021;53.174;18.160;2023-06-14T05:09:13;101307.42;;;15.78;71.43
76229;BME280;65021;53.174;18.160;2023-06-14T05:11:39;101321.42;;;15.81;71.21
76229;BME280;65021;53.174;18.160;2023-06-14T05:14:11;101339.08;;;15.80;70.83
76229;BME280;65021;53.174;18.160;2023-06-14T05:16:37;101355.25;;;15.70;70.35
76229;BME280;65021;53.174;18.160;2023-06-14T05:19:05;101357.71;;;15.58;70.22
76229;BME280;65021;53.174;18.160;2023-06-14T05:21:32;101355.55;;;15.56;70.29
76229;BME280;65021;53.174;18.160;2023-06-14T05:24:00;101349.98;;;15.59;70.46
76229;BME280;65021;53.174;18.160;2023-06-14T05:26:27;101335.76;;;15.65;70.40
76229;BME280;65021;53.174;18.160;2023-06-14T05:28:55;101324.96;;;15.68;70.55
76229;BME280;65021;53.174;18.160;2023-06-14T05:31:25;101320.52;;;15.72;70.20
76229;BME280;65021;53.174;18.160;2023-06-14T05:33:53;101312.36;;;15.76;70.32
76229;BME280;65021;53.174;18.160;2023-06-14T05:36:20;101303.61;;;15.81;70.29
76229;BME280;65021;53.174;18.160;2023-06-14T05:38:49;101305.26;;;15.85;70.00
76229;BME280;65021;53.174;18.160;2023-06-14T05:41:17;101312.64;;;15.97;69.90
76229;BME280;65021;53.174;18.160;2023-06-14T05:43:44;101313.40;;;16.16;69.83
76229;BME280;65021;53.174;18.160;2023-06-14T05:46:10;101308.50;;;16.40;69.62
76229;BME280;65021;53.174;18.160;2023-06-14T05:48:37;101294.24;;;16.63;68.94
76229;BME280;65021;53.174;18.160;2023-06-14T05:51:03;101279.58;;;16.86;68.11
76229;BME280;65021;53.174;18.160;2023-06-14T05:53:30;101270.84;;;17.14;68.40
76229;BME280;65021;53.174;18.160;2023-06-14T05:55:57;101268.27;;;17.51;67.79
76229;BME280;65021;53.174;18.160;2023-06-14T05:58:23;101269.91;;;17.94;66.63
76229;BME280;65021;53.174;18.160;2023-06-14T06:00:50;101276.96;;;18.47;66.08
76229;BME280;65021;53.174;18.160;2023-06-14T06:03:17;101298.50;;;18.89;64.69
76229;BME280;65021;53.174;18.160;2023-06-14T06:05:43;101305.20;;;19.10;64.24
76229;BME280;65021;53.174;18.160;2023-06-14T06:08:10;101308.34;;;19.25;63.57
76229;BME280;65021;53.174;18.160;2023-06-14T06:10:37;101305.36;;;19.37;62.91
76229;BME280;65021;53.174;18.160;2023-06-14T06:13:03;101295.78;;;19.54;63.72
76229;BME280;65021;53.174;18.160;2023-06-14T06:15:30;101295.45;;;19.68;62.08
76229;BME280;65021;53.174;18.160;2023-06-14T06:17:56;101299.89;;;19.77;60.03
76229;BME280;65021;53.174;18.160;2023-06-14T06:20:23;101295.51;;;19.82;58.72
76229;BME280;65021;53.174;18.160;2023-06-14T06:22:54;101301.05;;;19.93;58.14
76229;BME280;65021;53.174;18.160;2023-06-14T06:25:20;101305.75;;;20.09;57.93
76229;BME280;65021;53.174;18.160;2023-06-14T06:27:48;101305.19;;;20.16;57.60
76229;BME280;65021;53.174;18.160;2023-06-14T06:30:15;101306.30;;;20.00;56.85
76229;BME280;65021;53.174;18.160;2023-06-14T06:32:42;101308.89;;;19.87;57.34
76229;BME280;65021;53.174;18.160;2023-06-14T06:35:08;101313.80;;;19.80;57.47
76229;BME280;65021;53.174;18.160;2023-06-14T06:37:37;101315.32;;;19.74;57.25
76229;BME280;65021;53.174;18.160;2023-06-14T06:40:04;101314.59;;;19.65;56.40
76229;BME280;65021;53.174;18.160;2023-06-14T06:42:32;101313.09;;;19.54;56.17
76229;BME280;65021;53.174;18.160;2023-06-14T06:44:58;101317.89;;;19.46;56.76
76229;BME280;65021;53.174;18.160;2023-06-14T06:47:25;101319.25;;;19.44;55.96
76229;BME280;65021;53.174;18.160;2023-06-14T06:49:52;101325.45;;;19.36;56.65
76229;BME280;65021;53.174;18.160;2023-06-14T06:52:19;101331.28;;;19.25;56.27
76229;BME280;65021;53.174;18.160;2023-06-14T06:54:45;101335.23;;;19.16;57.45
76229;BME280;65021;53.174;18.160;2023-06-14T06:57:12;101336.85;;;19.17;57.30
76229;BME280;65021;53.174;18.160;2023-06-14T06:59:39;101342.34;;;19.14;57.22
76229;BME280;65021;53.174;18.160;2023-06-14T07:02:06;101345.87;;;19.07;57.14
76229;BME280;65021;53.174;18.160;2023-06-14T07:04:32;101346.91;;;19.02;57.25
76229;BME280;65021;53.174;18.160;2023-06-14T07:06:59;101349.45;;;19.01;57.05
76229;BME280;65021;53.174;18.160;2023-06-14T07:09:25;101346.95;;;19.05;56.90
76229;BME280;65021;53.174;18.160;2023-06-14T07:11:52;101347.11;;;19.07;56.80
76229;BME280;65021;53.174;18.160;2023-06-14T07:14:19;101346.45;;;19.14;57.04
76229;BME280;65021;53.174;18.160;2023-06-14T07:16:45;101348.25;;;19.26;56.80
76229;BME280;65021;53.174;18.160;2023-06-14T07:19:12;101349.88;;;19.44;56.78
76229;BME280;65021;53.174;18.160;2023-06-14T07:21:39;101352.46;;;19.54;55.35
76229;BME280;65021;53.174;18.160;2023-06-14T07:24:06;101346.75;;;19.57;55.40
76229;BME280;65021;53.174;18.160;2023-06-14T07:26:34;101341.07;;;19.63;55.90
76229;BME280;65021;53.174;18.160;2023-06-14T07:29:02;101343.15;;;19.71;55.72
76229;BME280;65021;53.174;18.160;2023-06-14T07:31:28;101335.47;;;19.80;55.22
76229;BME280;65021;53.174;18.160;2023-06-14T07:33:55;101320.02;;;19.85;55.69
76229;BME280;65021;53.174;18.160;2023-06-14T07:36:22;101324.16;;;19.97;55.66
76229;BME280;65021;53.174;18.160;2023-06-14T07:38:49;101341.02;;;20.11;55.58
76229;BME280;65021;53.174;18.160;2023-06-14T07:41:16;101344.70;;;20.26;54.96
76229;BME280;65021;53.174;18.160;2023-06-14T07:43:42;101343.92;;;20.31;53.17
76229;BME280;65021;53.174;18.160;2023-06-14T07:46:09;101333.23;;;20.33;53.03
76229;BME280;65021;53.174;18.160;2023-06-14T07:48:36;101329.95;;;20.40;53.41
76229;BME280;65021;53.174;18.160;2023-06-14T07:51:02;101328.85;;;20.58;53.93
76229;BME280;65021;53.174;18.160;2023-06-14T07:53:29;101326.36;;;20.86;53.76
76229;BME280;65021;53.174;18.160;2023-06-14T07:55:57;101327.44;;;21.19;53.44
76229;BME280;65021;53.174;18.160;2023-06-14T07:58:23;101317.13;;;21.40;51.86
76229;BME280;65021;53.174;18.160;2023-06-14T08:00:50;101309.64;;;21.45;51.93
76229;BME280;65021;53.174;18.160;2023-06-14T08:03:17;101309.23;;;21.62;52.32
76229;BME280;65021;53.174;18.160;2023-06-14T08:05:44;101304.08;;;21.76;51.25
76229;BME280;65021;53.174;18.160;2023-06-14T08:08:11;101313.08;;;21.98;51.89
76229;BME280;65021;53.174;18.160;2023-06-14T08:10:37;101315.69;;;22.10;50.67
76229;BME280;65021;53.174;18.160;2023-06-14T08:13:04;101318.44;;;22.12;50.27
76229;BME280;65021;53.174;18.160;2023-06-14T08:15:31;101318.91;;;22.14;50.37
76229;BME280;65021;53.174;18.160;2023-06-14T08:17:58;101321.90;;;22.15;50.03
76229;BME280;65021;53.174;18.160;2023-06-14T08:20:26;101325.54;;;22.18;49.84
76229;BME280;65021;53.174;18.160;2023-06-14T08:22:53;101326.23;;;22.23;48.75
76229;BME280;65021;53.174;18.160;2023-06-14T08:25:23;101325.75;;;22.40;49.48
76229;BME280;65021;53.174;18.160;2023-06-14T08:27:49;101329.84;;;22.58;49.66
76229;BME280;65021;53.174;18.160;2023-06-14T08:30:16;101328.44;;;22.78;49.14
76229;BME280;65021;53.174;18.160;2023-06-14T08:32:44;101338.80;;;22.93;48.56
76229;BME280;65021;53.174;18.160;2023-06-14T08:35:11;101339.73;;;23.03;48.05
76229;BME280;65021;53.174;18.160;2023-06-14T08:37:40;101336.96;;;23.20;47.12
76229;BME280;65021;53.174;18.160;2023-06-14T08:40:27;101339.33;;;23.15;46.52
76229;BME280;65021;53.174;18.160;2023-06-14T08:42:56;101339.63;;;23.18;47.49
76229;BME280;65021;53.174;18.160;2023-06-14T08:45:24;101334.23;;;23.37;46.59
76229;BME280;65021;53.174;18.160;2023-06-14T08:47:51;101328.19;;;23.51;47.11
76229;BME280;65021;53.174;18.160;2023-06-14T08:50:24;101321.93;;;23.70;45.18
76229;BME280;65021;53.174;18.160;2023-06-14T08:52:58;101325.44;;;23.73;45.81
76229;BME280;65021;53.174;18.160;2023-06-14T08:55:29;101326.61;;;23.73;45.29
76229;BME280;65021;53.174;18.160;2023-06-14T08:57:57;101327.92;;;23.76;45.32
76229;BME280;65021;53.174;18.160;2023-06-14T09:00:25;101329.70;;;23.84;44.85
76229;BME280;65021;53.174;18.160;2023-06-14T09:02:52;101325.90;;;24.05;45.20
76229;BME280;65021;53.174;18.160;2023-06-14T09:05:27;101328.65;;;24.54;44.05
76229;BME280;65021;53.174;18.160;2023-06-14T09:07:54;101330.20;;;24.70;43.92
76229;BME280;65021;53.174;18.160;2023-06-14T09:10:22;101332.47;;;24.68;42.86
76229;BME280;65021;53.174;18.160;2023-06-14T09:12:50;101334.55;;;24.63;42.86
76229;BME280;65021;53.174;18.160;2023-06-14T09:15:17;101333.97;;;24.59;42.30
76229;BME280;65021;53.174;18.160;2023-06-14T09:17:44;101334.08;;;24.57;42.84
76229;BME280;65021;53.174;18.160;2023-06-14T09:20:10;101332.00;;;24.60;42.56
76229;BME280;65021;53.174;18.160;2023-06-14T09:22:39;101335.95;;;24.68;43.01
76229;BME280;65021;53.174;18.160;2023-06-14T09:25:06;101336.73;;;24.77;42.05
76229;BME280;65021;53.174;18.160;2023-06-14T09:27:33;101335.05;;;24.80;42.35
76229;BME280;65021;53.174;18.160;2023-06-14T09:30:05;101330.36;;;25.20;42.51
76229;BME280;65021;53.174;18.160;2023-06-14T09:32:39;101327.27;;;25.63;41.75
76229;BME280;65021;53.174;18.160;2023-06-14T09:35:07;101319.25;;;26.00;41.14
76229;BME280;65021;53.174;18.160;2023-06-14T09:37:34;101316.11;;;26.24;40.19
76229;BME280;65021;53.174;18.160;2023-06-14T09:40:03;101310.61;;;25.95;38.48
76229;BME280;65021;53.174;18.160;2023-06-14T09:42:30;101317.59;;;25.55;39.09
76229;BME280;65021;53.174;18.160;2023-06-14T09:44:57;101316.86;;;25.33;39.24
76229;BME280;65021;53.174;18.160;2023-06-14T09:47:24;101311.54;;;25.32;40.49
76229;BME280;65021;53.174;18.160;2023-06-14T09:49:51;101316.20;;;25.46;39.79
76229;BME280;65021;53.174;18.160;2023-06-14T09:52:21;101309.61;;;25.26;38.44
76229;BME280;65021;53.174;18.160;2023-06-14T09:54:49;101311.63;;;24.75;38.45
76229;BME280;65021;53.174;18.160;2023-06-14T09:57:20;101312.16;;;24.48;38.94
76229;BME280;65021;53.174;18.160;2023-06-14T09:59:48;101307.96;;;24.27;38.97
76229;BME280;65021;53.174;18.160;2023-06-14T10:02:30;101308.22;;;24.22;39.33
76229;BME280;65021;53.174;18.160;2023-06-14T10:05:07;101312.70;;;24.45;39.24
76229;BME280;65021;53.174;18.160;2023-06-14T10:07:48;101306.51;;;24.51;39.22
76229;BME280;65021;53.174;18.160;2023-06-14T10:10:19;101305.67;;;24.54;38.66
76229;BME280;65021;53.174;18.160;2023-06-14T10:12:46;101303.15;;;24.76;39.01
76229;BME280;65021;53.174;18.160;2023-06-14T10:15:52;101298.36;;;24.98;38.88
76229;BME280;65021;53.174;18.160;2023-06-14T10:18:35;101297.13;;;25.14;38.72
76229;BME280;65021;53.174;18.160;2023-06-14T10:21:13;101298.45;;;25.42;38.65
76229;BME280;65021;53.174;18.160;2023-06-14T10:23:44;101292.55;;;25.66;38.46
76229;BME280;65021;53.174;18.160;2023-06-14T10:26:23;101298.80;;;25.54;37.54
76229;BME280;65021;53.174;18.160;2023-06-14T10:29:00;101296.97;;;25.49;37.99
76229;BME280;65021;53.174;18.160;2023-06-14T10:31:45;101288.77;;;25.42;37.94
76229;BME280;65021;53.174;18.160;2023-06-14T10:34:12;101290.88;;;25.14;38.21
76229;BME280;65021;53.174;18.160;2023-06-14T10:37:03;101292.06;;;25.07;38.32
76229;BME280;65021;53.174;18.160;2023-06-14T10:39:32;101288.09;;;25.10;38.61
76229;BME280;65021;53.174;18.160;2023-06-14T10:42:01;101278.84;;;25.38;38.42
76229;BME280;65021;53.174;18.160;2023-06-14T10:46:56;101274.02;;;25.76;37.84
76229;BME280;65021;53.174;18.160;2023-06-14T10:49:44;101267.66;;;25.94;37.25
76229;BME280;65021;53.174;18.160;2023-06-14T10:52:13;101267.05;;;25.79;37.39
76229;BME280;65021;53.174;18.160;2023-06-14T10:57:38;101264.74;;;25.78;36.61
76229;BME280;65021;53.174;18.160;2023-06-14T11:00:07;101261.64;;;25.95;36.82
76229;BME280;65021;53.174;18.160;2023-06-14T11:05:54;101260.05;;;26.17;36.56
76229;BME280;65021;53.174;18.160;2023-06-14T11:11:09;101252.23;;;26.21;36.17
76229;BME280;65021;53.174;18.160;2023-06-14T11:13:55;101253.83;;;26.27;36.21
76229;BME280;65021;53.174;18.160;2023-06-14T11:16:25;101255.13;;;26.38;35.91
76229;BME280;65021;53.174;18.160;2023-06-14T11:18:52;101255.39;;;26.46;34.87
76229;BME280;65021;53.174;18.160;2023-06-14T11:21:19;101252.71;;;26.73;35.11
76229;BME280;65021;53.174;18.160;2023-06-14T11:23:52;101254.66;;;27.17;35.00
76229;BME280;65021;53.174;18.160;2023-06-14T11:26:29;101252.65;;;27.45;34.44
76229;BME280;65021;53.174;18.160;2023-06-14T11:29:00;101253.56;;;27.42;32.74
76229;BME280;65021;53.174;18.160;2023-06-14T11:31:28;101249.58;;;27.34;34.32
76229;BME280;65021;53.174;18.160;2023-06-14T11:33:55;101247.39;;;27.29;33.71
76229;BME280;65021;53.174;18.160;2023-06-14T11:36:30;101244.60;;;26.85;33.34
76229;BME280;65021;53.174;18.160;2023-06-14T11:39:00;101244.43;;;26.31;33.59
76229;BME280;65021;53.174;18.160;2023-06-14T11:41:57;101248.63;;;25.73;34.30
76229;BME280;65021;53.174;18.160;2023-06-14T11:44:27;101250.91;;;25.20;35.07
76229;BME280;65021;53.174;18.160;2023-06-14T11:46:54;101253.35;;;24.89;35.29
76229;BME280;65021;53.174;18.160;2023-06-14T11:49:23;101249.20;;;24.65;36.12
76229;BME280;65021;53.174;18.160;2023-06-14T11:51:50;101255.38;;;24.48;36.88
76229;BME280;65021;53.174;18.160;2023-06-14T11:54:16;101256.01;;;24.38;37.48
76229;BME280;65021;53.174;18.160;2023-06-14T11:56:43;101264.73;;;24.27;37.61
76229;BME280;65021;53.174;18.160;2023-06-14T11:59:10;101257.66;;;24.11;38.01
76229;BME280;65021;53.174;18.160;2023-06-14T12:01:37;101255.72;;;23.99;38.45
76229;BME280;65021;53.174;18.160;2023-06-14T12:04:04;101253.90;;;23.87;39.07
76229;BME280;65021;53.174;18.160;2023-06-14T12:06:31;101252.11;;;23.72;39.12
76229;BME280;65021;53.174;18.160;2023-06-14T12:09:06;101252.11;;;23.54;39.59
76229;BME280;65021;53.174;18.160;2023-06-14T12:11:39;101251.87;;;23.37;39.85
76229;BME280;65021;53.174;18.160;2023-06-14T12:14:08;101250.00;;;23.22;39.65
76229;BME280;65021;53.174;18.160;2023-06-14T12:16:37;101258.02;;;23.04;39.95
76229;BME280;65021;53.174;18.160;2023-06-14T12:19:17;101259.29;;;22.85;40.23
76229;BME280;65021;53.174;18.160;2023-06-14T12:21:46;101261.41;;;22.70;40.02
76229;BME280;65021;53.174;18.160;2023-06-14T12:24:17;101257.63;;;22.55;40.18
76229;BME280;65021;53.174;18.160;2023-06-14T12:26:44;101257.89;;;22.42;40.53
76229;BME280;65021;53.174;18.160;2023-06-14T12:29:12;101257.73;;;22.30;40.61
76229;BME280;65021;53.174;18.160;2023-06-14T12:31:38;101263.05;;;22.19;40.96
76229;BME280;65021;53.174;18.160;2023-06-14T12:34:05;101263.93;;;22.04;41.08
76229;BME280;65021;53.174;18.160;2023-06-14T12:36:31;101264.06;;;21.93;41.39
76229;BME280;65021;53.174;18.160;2023-06-14T12:38:58;101262.72;;;21.74;41.81
76229;BME280;65021;53.174;18.160;2023-06-14T12:41:25;101264.88;;;21.57;42.12
76229;BME280;65021;53.174;18.160;2023-06-14T12:43:52;101260.16;;;21.40;43.12
76229;BME280;65021;53.174;18.160;2023-06-14T12:46:19;101267.94;;;21.29;42.82
76229;BME280;65021;53.174;18.160;2023-06-14T12:48:47;101271.23;;;21.14;42.94
76229;BME280;65021;53.174;18.160;2023-06-14T12:51:13;101282.73;;;21.00;43.71
76229;BME280;65021;53.174;18.160;2023-06-14T12:53:40;101283.79;;;20.84;43.52
76229;BME280;65021;53.174;18.160;2023-06-14T12:56:07;101287.91;;;20.66;46.96
76229;BME280;65021;53.174;18.160;2023-06-14T12:58:33;101288.57;;;20.38;49.12
76229;BME280;65021;53.174;18.160;2023-06-14T13:01:00;101293.39;;;20.03;51.20
76229;BME280;65021;53.174;18.160;2023-06-14T13:03:27;101291.92;;;19.71;53.81